createdAt,value
2023-04-08T00:02:05.294Z,100347.78
2023-04-08T00:04:33.152Z,100348.63
2023-04-08T00:07:01.001Z,100342.53
2023-04-08T00:09:29.512Z,100351.28
2023-04-08T00:11:57.670Z,100355.69
2023-04-08T00:14:25.470Z,100353.94
2023-04-08T00:17:02.903Z,100367.03
2023-04-08T00:19:30.967Z,100348.75
2023-04-08T00:21:58.779Z,100339.16
2023-04-08T00:24:26.469Z,100371.50
2023-04-08T00:26:56.466Z,100359.25
2023-04-08T00:29:24.140Z,100367.97
2023-04-08T00:34:29.437Z,100369.72
2023-04-08T00:36:57.806Z,100354.91
2023-04-08T00:39:25.654Z,100368.00
2023-04-08T00:41:53.397Z,100372.41
2023-04-08T00:44:21.364Z,100375.91
2023-04-08T00:46:49.095Z,100370.66
2023-04-08T00:49:17.491Z,100372.41
2023-04-08T00:51:46.565Z,100373.28
2023-04-08T00:54:14.434Z,100370.66
2023-04-08T00:56:42.119Z,100378.53
2023-04-08T00:59:09.844Z,100373.28
2023-04-08T01:01:49.480Z,100355.84
2023-04-08T01:04:28.666Z,100341.88
2023-04-08T01:07:00.728Z,100369.84
2023-04-08T01:09:31.163Z,100364.59
2023-04-08T01:11:58.973Z,100385.53
2023-04-08T01:14:27.779Z,100389.91
2023-04-08T01:16:55.902Z,100393.44
2023-04-08T01:19:28.132Z,100364.63
2023-04-08T01:21:56.512Z,100341.91
2023-04-08T01:24:29.169Z,100389.94
2023-04-08T01:26:58.282Z,100392.56
2023-04-08T01:29:26.114Z,100386.47
2023-04-08T01:31:54.241Z,100359.38
2023-04-08T01:34:22.002Z,100393.47
2023-04-08T01:36:52.509Z,100392.59
2023-04-08T01:39:21.428Z,100388.25
2023-04-08T01:41:51.239Z,100325.38
2023-04-08T01:44:20.287Z,100393.50
2023-04-08T01:46:48.169Z,100384.72
2023-04-08T01:49:15.905Z,100390.00
2023-04-08T01:51:44.387Z,100352.44
2023-04-08T01:54:12.065Z,100389.13
2023-04-08T01:56:42.485Z,100386.50
2023-04-08T01:59:11.734Z,100393.47
2023-04-08T02:01:40.881Z,100388.25
2023-04-08T02:04:08.721Z,100393.50
2023-04-08T02:06:36.515Z,100387.38
2023-04-08T02:09:04.423Z,100389.13
2023-04-08T02:11:34.840Z,100390.88
2023-04-08T02:14:02.968Z,100390.00
2023-04-08T02:16:32.334Z,100387.38
2023-04-08T02:19:04.730Z,100389.97
2023-04-08T02:21:34.906Z,100348.06
2023-04-08T02:24:03.987Z,100355.91
2023-04-08T02:26:31.808Z,100396.94
2023-04-08T02:28:59.770Z,100405.66
2023-04-08T02:31:27.599Z,100404.78
2023-04-08T02:33:56.241Z,100383.78
2023-04-08T02:36:25.963Z,100399.53
2023-04-08T02:38:53.578Z,100398.63
2023-04-08T02:41:21.323Z,100402.13
2023-04-08T02:43:49.236Z,100379.34
2023-04-08T02:46:17.168Z,100404.69
2023-04-08T02:48:44.928Z,100409.03
2023-04-08T02:51:12.750Z,100406.38
2023-04-08T02:53:41.822Z,100404.63
2023-04-08T02:56:11.793Z,100397.63
2023-04-08T02:58:41.021Z,100408.88
2023-04-08T03:01:09.851Z,100401.94
2023-04-08T03:03:37.792Z,100411.50
2023-04-08T03:06:06.632Z,100412.34
2023-04-08T03:08:34.414Z,100414.09
2023-04-08T03:11:03.511Z,100406.25
2023-04-08T03:13:31.781Z,100411.44
2023-04-08T03:15:59.677Z,100417.59
2023-04-08T03:18:28.794Z,100415.00
2023-04-08T03:20:57.141Z,100416.78
2023-04-08T03:23:24.856Z,100414.22
2023-04-08T03:25:52.597Z,100410.72
2023-04-08T03:28:21.671Z,100415.91
2023-04-08T03:30:49.530Z,100413.25
2023-04-08T03:33:17.492Z,100415.00
2023-04-08T03:35:45.186Z,100427.22
2023-04-08T03:38:13.021Z,100421.09
2023-04-08T03:40:40.707Z,100430.72
2023-04-08T03:43:09.403Z,100434.16
2023-04-08T03:45:38.415Z,100429.81
2023-04-08T03:48:06.595Z,100378.22
2023-04-08T03:50:34.260Z,100426.34
2023-04-08T03:53:02.093Z,100433.38
2023-04-08T03:55:29.849Z,100433.31
2023-04-08T03:57:57.615Z,100435.09
2023-04-08T04:00:25.430Z,100432.47
2023-04-08T04:02:56.021Z,100429.00
2023-04-08T04:05:23.733Z,100435.13
2023-04-08T04:07:51.561Z,100438.63
2023-04-08T04:10:19.334Z,100429.88
2023-04-08T04:12:47.651Z,100440.38
2023-04-08T04:15:15.427Z,100417.63
2023-04-08T04:17:56.593Z,100429.00
2023-04-08T04:20:25.994Z,100442.97
2023-04-08T04:22:53.836Z,100435.06
2023-04-08T04:25:21.568Z,100423.69
2023-04-08T04:27:49.362Z,100435.94
2023-04-08T04:30:17.254Z,100441.16
2023-04-08T04:32:44.981Z,100439.38
2023-04-08T04:35:14.120Z,100442.84
2023-04-08T04:37:41.872Z,100434.13
2023-04-08T04:40:10.149Z,100451.56
2023-04-08T04:42:37.839Z,100460.31
2023-04-08T04:45:06.196Z,100460.28
2023-04-08T04:47:33.871Z,100457.66
2023-04-08T04:50:01.860Z,100463.75
2023-04-08T04:52:30.862Z,100475.09
2023-04-08T04:54:58.746Z,100475.09
2023-04-08T04:57:26.628Z,100468.09
2023-04-08T04:59:54.427Z,100468.06
2023-04-08T05:02:22.157Z,100463.69
2023-04-08T05:04:50.020Z,100474.13
2023-04-08T05:07:17.816Z,100463.66
2023-04-08T05:09:47.094Z,100471.47
2023-04-08T05:12:14.865Z,100469.72
2023-04-08T05:14:42.719Z,100455.75
2023-04-08T05:17:12.529Z,100469.75
2023-04-08T05:19:40.208Z,100470.63
2023-04-08T05:22:10.135Z,100464.47
2023-04-08T05:24:37.870Z,100474.03
2023-04-08T05:27:07.073Z,100481.91
2023-04-08T05:29:35.059Z,100476.63
2023-04-08T05:32:03.845Z,100477.50
2023-04-08T05:34:32.543Z,100475.69
2023-04-08T05:37:00.334Z,100478.28
2023-04-08T05:39:28.020Z,100491.41
2023-04-08T05:41:56.030Z,100480.91
2023-04-08T05:44:25.032Z,100492.28
2023-04-08T05:46:52.806Z,100488.81
2023-04-08T05:49:20.663Z,100490.56
2023-04-08T05:51:48.418Z,100510.56
2023-04-08T05:54:16.224Z,100501.81
2023-04-08T05:56:46.288Z,100508.81
2023-04-08T05:59:13.934Z,100459.72
2023-04-08T06:01:43.153Z,100523.63
2023-04-08T06:04:11.076Z,100521.00
2023-04-08T06:06:39.007Z,100523.63
2023-04-08T06:09:06.790Z,100525.38
2023-04-08T06:11:34.555Z,100520.09
2023-04-08T06:14:02.296Z,100519.28
2023-04-08T06:16:30.131Z,100527.09
2023-04-08T06:18:59.173Z,100525.38
2023-04-08T06:21:27.702Z,100522.78
2023-04-08T06:23:55.397Z,100527.19
2023-04-08T06:26:23.059Z,100508.84
2023-04-08T06:28:52.225Z,100538.56
2023-04-08T06:33:47.748Z,100501.00
2023-04-08T06:36:16.780Z,100537.72
2023-04-08T06:38:44.516Z,100534.31
2023-04-08T06:41:12.179Z,100536.97
2023-04-08T06:43:40.457Z,100537.84
2023-04-08T06:46:08.160Z,100538.72
2023-04-08T06:48:38.994Z,100528.25
2023-04-08T06:51:07.819Z,100541.44
2023-04-08T06:53:37.166Z,100542.31
2023-04-08T06:56:05.164Z,100524.81
2023-04-08T06:58:33.065Z,100539.81
2023-04-08T07:01:01.240Z,100530.97
2023-04-08T07:03:29.078Z,100558.22
2023-04-08T07:05:56.821Z,100563.47
2023-04-08T07:08:24.583Z,100554.78
2023-04-08T07:10:54.819Z,100560.94
2023-04-08T07:13:22.521Z,100557.44
2023-04-08T07:15:50.349Z,100569.75
2023-04-08T07:18:18.002Z,100567.16
2023-04-08T07:20:46.412Z,100571.56
2023-04-08T07:23:14.209Z,100569.84
2023-04-08T07:25:41.925Z,100563.75
2023-04-08T07:28:10.970Z,100577.75
2023-04-08T07:30:38.668Z,100573.44
2023-04-08T07:33:06.548Z,100582.16
2023-04-08T07:35:34.852Z,100583.94
2023-04-08T07:38:02.677Z,100570.84
2023-04-08T07:40:30.758Z,100578.72
2023-04-08T07:42:58.538Z,100577.88
2023-04-08T07:45:27.643Z,100573.50
2023-04-08T07:47:55.601Z,100587.53
2023-04-08T07:50:23.526Z,100594.53
2023-04-08T07:52:53.195Z,100591.88
2023-04-08T07:55:20.960Z,100594.53
2023-04-08T07:57:54.540Z,100598.03
2023-04-08T08:00:36.477Z,100605.03
2023-04-08T08:03:04.572Z,100604.16
2023-04-08T08:05:32.657Z,100598.03
2023-04-08T08:08:00.350Z,100600.66
2023-04-08T08:10:28.521Z,100593.63
2023-04-08T08:12:56.281Z,100610.25
2023-04-08T08:15:24.050Z,100606.75
2023-04-08T08:17:53.186Z,100611.09
2023-04-08T08:20:20.999Z,100615.47
2023-04-08T08:22:57.264Z,100616.38
2023-04-08T08:25:26.350Z,100624.25
2023-04-08T08:27:55.387Z,100608.50
2023-04-08T08:30:23.452Z,100626.84
2023-04-08T08:32:52.193Z,100625.13
2023-04-08T08:35:21.380Z,100628.56
2023-04-08T08:37:49.218Z,100619.81
2023-04-08T08:40:16.961Z,100631.19
2023-04-08T08:42:51.392Z,100600.59
2023-04-08T08:45:19.442Z,100637.31
2023-04-08T08:47:48.982Z,100627.66
2023-04-08T08:50:18.489Z,100603.16
2023-04-08T08:52:56.519Z,100636.34
2023-04-08T08:57:55.150Z,100645.09
2023-04-08T09:00:34.475Z,100627.53
2023-04-08T09:03:18.693Z,100633.53
2023-04-08T09:05:50.572Z,100645.72
2023-04-08T09:08:31.309Z,100633.31
2023-04-08T09:11:12.341Z,100641.13
2023-04-08T09:13:40.054Z,100643.78
2023-04-08T09:16:09.567Z,100640.28
2023-04-08T09:18:37.557Z,100620.31
2023-04-08T09:21:06.071Z,100642.28
2023-04-08T09:23:42.514Z,100676.50
2023-04-08T09:26:11.082Z,100641.50
2023-04-08T09:28:39.404Z,100654.66
2023-04-08T09:31:23.025Z,100652.03
2023-04-08T09:33:51.373Z,100653.81
2023-04-08T09:36:20.275Z,100656.44
2023-04-08T09:38:49.346Z,100633.69
2023-04-08T09:41:17.924Z,100624.06
2023-04-08T09:43:49.591Z,100645.03
2023-04-08T09:46:19.126Z,100661.56
2023-04-08T09:48:57.699Z,100659.75
2023-04-08T09:51:25.482Z,100660.38
2023-04-08T09:53:57.573Z,100646.19
2023-04-08T09:56:25.993Z,100638.94
2023-04-08T09:58:55.840Z,100645.38
2023-04-08T10:01:26.169Z,100648.16
2023-04-08T10:03:57.106Z,100641.72
2023-04-08T10:06:28.869Z,100639.78
2023-04-08T10:08:58.544Z,100648.66
2023-04-08T10:11:26.242Z,100646.75
2023-04-08T10:13:54.028Z,100645.66
2023-04-08T10:16:23.028Z,100586.97
2023-04-08T10:18:52.977Z,100632.22
2023-04-08T10:21:37.098Z,100662.06
2023-04-08T10:24:09.029Z,100658.66
2023-04-08T10:26:38.314Z,100663.00
2023-04-08T10:29:36.854Z,100669.75
2023-04-08T10:32:04.600Z,100665.91
2023-04-08T10:34:32.389Z,100664.59
2023-04-08T10:37:02.061Z,100670.00
2023-04-08T10:39:31.727Z,100663.03
2023-04-08T10:41:59.474Z,100664.97
2023-04-08T10:44:27.729Z,100650.25
2023-04-08T10:46:55.586Z,100646.03
2023-04-08T10:49:24.043Z,100655.69
2023-04-08T10:51:52.369Z,100656.53
2023-04-08T10:54:20.131Z,100654.00
2023-04-08T10:56:50.101Z,100660.28
2023-04-08T10:59:20.159Z,100650.69
2023-04-08T11:01:48.034Z,100665.69
2023-04-08T11:04:16.517Z,100660.53
2023-04-08T11:06:44.787Z,100660.53
2023-04-08T11:09:12.657Z,100663.25
2023-04-08T11:11:40.393Z,100656.34
2023-04-08T11:14:09.492Z,100655.44
2023-04-08T11:16:38.494Z,100657.34
2023-04-08T11:19:06.476Z,100652.13
2023-04-08T11:21:41.343Z,100658.28
2023-04-08T11:24:11.954Z,100652.19
2023-04-08T11:26:39.762Z,100655.63
2023-04-08T11:29:12.713Z,100672.41
2023-04-08T11:31:40.550Z,100651.31
2023-04-08T11:34:09.184Z,100651.31
2023-04-08T11:36:37.111Z,100644.19
2023-04-08T11:39:09.183Z,100639.63
2023-04-08T11:41:40.431Z,100647.44
2023-04-08T11:44:09.644Z,100646.63
2023-04-08T11:46:37.768Z,100643.19
2023-04-08T11:49:06.376Z,100617.88
2023-04-08T11:51:35.420Z,100638.72
2023-04-08T11:54:06.142Z,100643.84
2023-04-08T11:56:37.575Z,100675.34
2023-04-08T11:59:05.403Z,100624.41
2023-04-08T12:01:34.593Z,100655.78
2023-04-08T12:04:02.921Z,100653.88
2023-04-08T12:06:31.606Z,100662.53
2023-04-08T12:08:59.833Z,100656.22
2023-04-08T12:11:27.626Z,100650.88
2023-04-08T12:13:55.399Z,100657.63
2023-04-08T12:16:23.374Z,100650.34
2023-04-08T12:18:52.458Z,100653.59
2023-04-08T12:21:20.248Z,100650.19
2023-04-08T12:23:47.951Z,100645.31
2023-04-08T12:26:15.631Z,100653.69
2023-04-08T12:28:43.534Z,100646.44
2023-04-08T12:31:11.298Z,100643.91
2023-04-08T12:34:11.608Z,100645.47
2023-04-08T12:40:51.181Z,100655.69
2023-04-08T12:43:18.971Z,100649.19
2023-04-08T12:45:46.635Z,100657.28
2023-04-08T12:48:14.482Z,100654.78
2023-04-08T12:50:42.124Z,100648.75
2023-04-08T12:53:11.666Z,100634.50
2023-04-08T12:55:39.555Z,100648.09
2023-04-08T12:58:07.633Z,100645.28
2023-04-08T13:00:38.148Z,100647.03
2023-04-08T13:03:06.228Z,100654.59
2023-04-08T13:05:43.107Z,100659.56
2023-04-08T13:08:15.066Z,100650.53
2023-04-08T13:10:44.890Z,100663.13
2023-04-08T13:13:14.381Z,100648.69
2023-04-08T13:15:42.372Z,100647.06
2023-04-08T13:18:10.842Z,100658.66
2023-04-08T13:20:39.211Z,100620.56
2023-04-08T13:23:10.111Z,100661.81
2023-04-08T13:25:39.571Z,100672.75
2023-04-08T13:28:07.496Z,100660.78
2023-04-08T13:30:35.866Z,100664.56
2023-04-08T13:33:03.708Z,100663.81
2023-04-08T13:35:31.518Z,100660.50
2023-04-08T13:37:59.230Z,100668.50
2023-04-08T13:40:27.894Z,100661.56
2023-04-08T13:42:58.585Z,100668.59
2023-04-08T13:45:34.512Z,100656.28
2023-04-08T13:48:02.729Z,100660.59
2023-04-08T13:50:32.827Z,100650.94
2023-04-08T13:53:02.954Z,100657.94
2023-04-08T13:55:31.088Z,100651.59
2023-04-08T13:58:00.193Z,100663.13
2023-04-08T14:00:28.020Z,100641.16
2023-04-08T14:02:55.875Z,100644.75
2023-04-08T14:05:23.728Z,100648.28
2023-04-08T14:07:51.378Z,100647.56
2023-04-08T14:10:19.004Z,100631.94
2023-04-08T14:12:47.067Z,100643.34
2023-04-08T14:15:16.344Z,100637.28
2023-04-08T14:17:44.225Z,100643.38
2023-04-08T14:20:12.198Z,100646.03
2023-04-08T14:22:40.544Z,100642.34
2023-04-08T14:25:08.711Z,100645.06
2023-04-08T14:27:39.899Z,100643.44
2023-04-08T14:30:16.691Z,100653.16
2023-04-08T14:32:44.433Z,100647.09
2023-04-08T14:35:12.382Z,100649.84
2023-04-08T14:37:40.511Z,100649.97
2023-04-08T14:40:09.462Z,100641.34
2023-04-08T14:42:37.151Z,100651.13
2023-04-08T14:45:05.268Z,100637.31
2023-04-08T14:47:34.433Z,100647.88
2023-04-08T14:50:02.146Z,100662.03
2023-04-08T14:52:29.885Z,100648.06
2023-04-08T14:54:57.583Z,100648.94
2023-04-08T14:57:25.593Z,100649.81
2023-04-08T14:59:54.119Z,100644.63
2023-04-08T15:02:21.943Z,100650.72
2023-04-08T15:04:51.075Z,100650.75
2023-04-08T15:07:20.403Z,100656.09
2023-04-08T15:09:48.146Z,100653.56
2023-04-08T15:12:16.002Z,100660.63
2023-04-08T15:14:43.678Z,100662.44
2023-04-08T15:17:15.499Z,100653.69
2023-04-08T15:19:43.245Z,100651.94
2023-04-08T15:22:12.915Z,100650.31
2023-04-08T15:24:40.541Z,100652.13
2023-04-08T15:27:08.773Z,100653.91
2023-04-08T15:29:43.223Z,100648.66
2023-04-08T15:32:12.162Z,100662.59
2023-04-08T15:34:39.807Z,100661.78
2023-04-08T15:37:07.845Z,100663.59
2023-04-08T15:39:37.029Z,100662.88
2023-04-08T15:42:05.308Z,100658.53
2023-04-08T15:44:33.475Z,100662.84
2023-04-08T15:47:01.134Z,100663.69
2023-04-08T15:49:28.888Z,100655.78
2023-04-08T15:51:56.649Z,100664.56
2023-04-08T15:54:24.428Z,100668.09
2023-04-08T15:56:53.509Z,100671.63
2023-04-08T15:59:21.468Z,100665.50
2023-04-08T16:01:49.168Z,100662.88
2023-04-08T16:04:17.297Z,100658.53
2023-04-08T16:06:47.121Z,100671.63
2023-04-08T16:09:16.800Z,100673.41
2023-04-08T16:11:44.645Z,100671.72
2023-04-08T16:14:13.943Z,100662.13
2023-04-08T16:16:41.786Z,100677.00
2023-04-08T16:19:10.072Z,100635.97
2023-04-08T16:21:38.331Z,100602.84
2023-04-08T16:24:06.973Z,100446.59
2023-04-08T16:26:35.167Z,100586.38
2023-04-08T16:29:03.143Z,100625.66
2023-04-08T16:31:33.162Z,100546.09
2023-04-08T16:34:01.199Z,100586.28
2023-04-08T16:36:30.274Z,100656.44
2023-04-08T16:38:58.322Z,100631.84
2023-04-08T16:41:26.516Z,100434.44
2023-04-08T16:43:54.682Z,100417.88
2023-04-08T16:46:22.879Z,100601.38
2023-04-08T16:48:52.267Z,100483.41
2023-04-08T16:51:20.470Z,100537.56
2023-04-08T16:53:49.040Z,100786.06
2023-04-08T16:56:17.359Z,100580.34
2023-04-08T16:58:45.567Z,100566.47
2023-04-08T17:01:14.544Z,100486.94
2023-04-08T17:03:42.838Z,100392.59
2023-04-08T17:06:13.660Z,100581.25
2023-04-08T17:08:43.641Z,100382.13
2023-04-08T17:11:13.332Z,100528.81
2023-04-08T17:13:41.917Z,100569.00
2023-04-08T17:16:12.829Z,100442.41
2023-04-08T17:18:40.708Z,100353.28
2023-04-08T17:21:08.422Z,100338.50
2023-04-08T17:23:37.619Z,100583.09
2023-04-08T17:26:07.439Z,100714.28
2023-04-08T17:28:35.345Z,100541.19
2023-04-08T17:31:04.527Z,100677.50
2023-04-08T17:33:33.999Z,100604.06
2023-04-08T17:36:01.947Z,100571.72
2023-04-08T17:38:29.927Z,100500.13
2023-04-08T17:40:59.060Z,100218.03
2023-04-08T17:43:27.369Z,100596.25
2023-04-08T17:45:56.101Z,100390.81
2023-04-08T17:48:24.460Z,100694.25
2023-04-08T17:50:55.076Z,100762.50
2023-04-08T17:53:23.056Z,100446.75
2023-04-08T17:55:51.132Z,100515.81
2023-04-08T17:58:20.998Z,100478.13
2023-04-08T18:00:49.015Z,100432.72
2023-04-08T18:03:18.402Z,100281.63
2023-04-08T18:05:46.424Z,100440.59
2023-04-08T18:08:16.408Z,100635.63
2023-04-08T18:10:46.862Z,100613.72
2023-04-08T18:13:15.528Z,100472.88
2023-04-08T18:15:44.755Z,100549.84
2023-04-08T18:18:15.002Z,100453.53
2023-04-08T18:20:43.072Z,100388.94
2023-04-08T18:23:11.142Z,100600.59
2023-04-08T18:25:38.820Z,100707.38
2023-04-08T18:28:06.690Z,100706.53
2023-04-08T18:30:34.377Z,100714.41
2023-04-08T18:33:03.851Z,100718.75
2023-04-08T18:35:31.626Z,100717.00
2023-04-08T18:38:00.409Z,100714.41
2023-04-08T18:40:28.234Z,100719.66
2023-04-08T18:42:56.087Z,100720.50
2023-04-08T18:45:24.082Z,100715.25
2023-04-08T18:47:52.288Z,100717.91
2023-04-08T18:50:21.362Z,100729.25
2023-04-08T18:52:49.518Z,100730.16
2023-04-08T18:55:17.353Z,100731.03
2023-04-08T18:57:45.104Z,100717.03
2023-04-08T19:00:14.144Z,100735.41
2023-04-08T19:02:41.977Z,100713.50
2023-04-08T19:05:10.390Z,100702.13
2023-04-08T19:07:39.543Z,100736.28
2023-04-08T19:10:08.638Z,100735.41
2023-04-08T19:12:36.546Z,100733.63
2023-04-08T19:15:04.845Z,100732.78
2023-04-08T19:17:32.553Z,100733.63
2023-04-08T19:20:00.393Z,100737.16
2023-04-08T19:22:28.186Z,100730.13
2023-04-08T19:24:57.826Z,100737.16
2023-04-08T19:27:27.057Z,100741.53
2023-04-08T19:29:54.834Z,100738.00
2023-04-08T19:32:22.735Z,100746.78
2023-04-08T19:34:50.488Z,100749.41
2023-04-08T19:37:18.164Z,100750.25
2023-04-08T19:39:45.812Z,100750.25
2023-04-08T19:42:15.465Z,100754.63
2023-04-08T19:44:43.105Z,100756.38
2023-04-08T19:47:10.958Z,100752.00
2023-04-08T19:49:38.857Z,100746.75
2023-04-08T19:52:06.821Z,100750.25
2023-04-08T19:54:34.533Z,100747.63
2023-04-08T19:57:02.499Z,100741.47
2023-04-08T19:59:31.540Z,100743.19
2023-04-08T20:01:59.487Z,100746.72
2023-04-08T20:04:27.291Z,100753.69
2023-04-08T20:06:55.254Z,100751.03
2023-04-08T20:09:23.097Z,100758.91
2023-04-08T20:11:51.016Z,100758.03
2023-04-08T20:14:18.754Z,100764.16
2023-04-08T20:16:48.911Z,100753.66
2023-04-08T20:19:17.043Z,100764.16
2023-04-08T20:21:44.836Z,100757.09
2023-04-08T20:24:12.713Z,100762.34
2023-04-08T20:26:40.636Z,100764.06
2023-04-08T20:29:08.469Z,100764.88
2023-04-08T20:31:36.231Z,100768.34
2023-04-08T20:34:05.323Z,100766.59
2023-04-08T20:36:34.248Z,100756.94
2023-04-08T20:39:02.341Z,100756.94
2023-04-08T20:41:30.081Z,100752.47
2023-04-08T20:43:57.696Z,100760.38
2023-04-08T20:46:25.805Z,100756.84
2023-04-08T20:48:53.829Z,100749.81
2023-04-08T20:51:23.195Z,100761.13
2023-04-08T20:53:50.903Z,100754.16
2023-04-08T20:56:18.590Z,100761.13
2023-04-08T20:58:46.330Z,100762.88
2023-04-08T21:01:14.104Z,100762.84
2023-04-08T21:03:41.932Z,100757.56
2023-04-08T21:06:16.801Z,100761.94
2023-04-08T21:08:46.184Z,100763.69
2023-04-08T21:11:13.942Z,100754.09
2023-04-08T21:13:41.944Z,100724.28
2023-04-08T21:16:09.832Z,100741.81
2023-04-08T21:18:39.652Z,100748.78
2023-04-08T21:21:07.617Z,100752.31
2023-04-08T21:23:35.402Z,100757.53
2023-04-08T21:26:04.441Z,100751.41
2023-04-08T21:28:33.240Z,100746.97
2023-04-08T21:31:08.782Z,100756.63
2023-04-08T21:33:37.037Z,100758.38
2023-04-08T21:36:06.111Z,100751.38
2023-04-08T21:38:33.945Z,100757.47
2023-04-08T21:41:01.797Z,100761.84
2023-04-08T21:43:30.869Z,100766.25
2023-04-08T21:45:58.619Z,100757.53
2023-04-08T21:48:26.311Z,100763.66
2023-04-08T21:50:54.192Z,100767.16
2023-04-08T21:53:22.159Z,100772.41
2023-04-08T21:55:49.930Z,100768.88
2023-04-08T21:58:17.982Z,100768.00
2023-04-08T22:00:47.319Z,100767.16
2023-04-08T22:03:15.142Z,100748.72
2023-04-08T22:05:43.089Z,100764.50
2023-04-08T22:08:10.787Z,100751.38
2023-04-08T22:10:38.638Z,100759.28
2023-04-08T22:13:06.356Z,100733.78
2023-04-08T22:15:34.219Z,100766.22
2023-04-08T22:18:10.427Z,100672.44
2023-04-08T22:20:38.638Z,100490.00
2023-04-08T22:23:06.868Z,100460.41
2023-04-08T22:25:37.853Z,100542.13
2023-04-08T22:28:06.610Z,100624.84
2023-04-08T22:30:34.837Z,100396.28
2023-04-08T22:33:04.362Z,100271.22
2023-04-08T22:35:32.794Z,100585.91
2023-04-08T22:38:01.146Z,100328.97
2023-04-08T22:40:29.354Z,100504.50
2023-04-08T22:42:57.674Z,100490.03
2023-04-08T22:45:26.005Z,100593.25
2023-04-08T22:47:57.820Z,100751.78
2023-04-08T22:50:27.678Z,100628.97
2023-04-08T22:52:56.673Z,100574.59
2023-04-08T22:55:24.726Z,100627.13
2023-04-08T22:57:55.983Z,100835.59
2023-04-08T23:00:24.470Z,100615.66
2023-04-08T23:02:52.964Z,100295.00
2023-04-08T23:05:20.993Z,100548.94
2023-04-08T23:07:50.968Z,100710.91
2023-04-08T23:10:19.624Z,100301.91
2023-04-08T23:12:47.907Z,100510.81
2023-04-08T23:15:16.656Z,100432.47
2023-04-08T23:17:47.745Z,100526.34
2023-04-08T23:20:18.334Z,100668.88
2023-04-08T23:22:47.819Z,100798.56
2023-04-08T23:25:18.270Z,100660.00
2023-04-08T23:27:47.156Z,100428.75
2023-04-08T23:30:15.723Z,100613.94
2023-04-08T23:32:44.445Z,100745.31
2023-04-08T23:35:13.779Z,100311.03
2023-04-08T23:37:49.259Z,100384.09
2023-04-08T23:40:30.010Z,100711.84
2023-04-08T23:42:58.150Z,100387.16
2023-04-08T23:45:26.131Z,100537.63
2023-04-08T23:47:54.579Z,100680.03
2023-04-08T23:50:23.104Z,100422.00
2023-04-08T23:52:51.327Z,100358.44
2023-04-08T23:55:20.731Z,100392.28
2023-04-08T23:57:49.454Z,100560.16
